sensor_id;sensor_type;location;lat;lon;timestamp;temperature;humidity
17659;DHT22;8948;51.534;8.262;2023-07-13T00:04:32;19.90;58.20
17659;DHT22;8948;51.534;8.262;2023-07-13T00:09:33;19.70;59.20
17659;DHT22;8948;51.534;8.262;2023-07-13T00:14:33;19.50;59.50
17659;DHT22;8948;51.534;8.262;2023-07-13T00:19:34;19.30;59.80
17659;DHT22;8948;51.534;8.262;2023-07-13T00:24:36;19.10;60.80
17659;DHT22;8948;51.534;8.262;2023-07-13T00:29:42;19.20;60.60
17659;DHT22;8948;51.534;8.262;2023-07-13T00:34:42;19.20;59.80
17659;DHT22;8948;51.534;8.262;2023-07-13T00:39:43;19.30;58.20
17659;DHT22;8948;51.534;8.262;2023-07-13T00:50:15;19.30;58.40
17659;DHT22;8948;51.534;8.262;2023-07-13T00:55:17;19.30;58.40
17659;DHT22;8948;51.534;8.262;2023-07-13T01:00:18;19.00;58.70
17659;DHT22;8948;51.534;8.262;2023-07-13T01:05:22;19.00;58.60
17659;DHT22;8948;51.534;8.262;2023-07-13T01:10:24;19.00;58.20
17659;DHT22;8948;51.534;8.262;2023-07-13T01:15:42;18.90;58.20
17659;DHT22;8948;51.534;8.262;2023-07-13T01:20:52;18.80;58.00
17659;DHT22;8948;51.534;8.262;2023-07-13T01:25:53;18.50;58.30
17659;DHT22;8948;51.534;8.262;2023-07-13T01:30:57;18.30;59.20
17659;DHT22;8948;51.534;8.262;2023-07-13T01:35:58;18.20;59.00
17659;DHT22;8948;51.534;8.262;2023-07-13T01:40:58;18.30;58.10
17659;DHT22;8948;51.534;8.262;2023-07-13T01:45:59;18.20;58.50
17659;DHT22;8948;51.534;8.262;2023-07-13T01:51:00;18.40;58.10
17659;DHT22;8948;51.534;8.262;2023-07-13T01:56:00;18.40;57.20
17659;DHT22;8948;51.534;8.262;2023-07-13T02:01:01;18.20;57.60
17659;DHT22;8948;51.534;8.262;2023-07-13T02:06:01;18.30;57.20
17659;DHT22;8948;51.534;8.262;2023-07-13T02:11:03;18.20;57.10
17659;DHT22;8948;51.534;8.262;2023-07-13T02:16:04;18.10;57.20
17659;DHT22;8948;51.534;8.262;2023-07-13T02:21:05;18.10;56.80
17659;DHT22;8948;51.534;8.262;2023-07-13T02:26:05;18.00;56.90
17659;DHT22;8948;51.534;8.262;2023-07-13T02:31:12;18.00;57.30
17659;DHT22;8948;51.534;8.262;2023-07-13T02:36:13;17.90;57.30
17659;DHT22;8948;51.534;8.262;2023-07-13T02:41:16;17.90;57.60
17659;DHT22;8948;51.534;8.262;2023-07-13T02:46:17;17.70;57.60
17659;DHT22;8948;51.534;8.262;2023-07-13T02:51:17;17.70;57.70
17659;DHT22;8948;51.534;8.262;2023-07-13T02:56:23;17.50;58.30
17659;DHT22;8948;51.534;8.262;2023-07-13T03:01:24;17.40;58.10
17659;DHT22;8948;51.534;8.262;2023-07-13T03:06:24;17.40;58.10
17659;DHT22;8948;51.534;8.262;2023-07-13T03:11:25;17.50;57.70
17659;DHT22;8948;51.534;8.262;2023-07-13T03:16:26;17.40;58.20
17659;DHT22;8948;51.534;8.262;2023-07-13T03:21:26;17.30;58.00
17659;DHT22;8948;51.534;8.262;2023-07-13T03:26:27;17.30;58.30
17659;DHT22;8948;51.534;8.262;2023-07-13T03:31:34;17.20;58.30
17659;DHT22;8948;51.534;8.262;2023-07-13T03:36:35;17.10;58.50
17659;DHT22;8948;51.534;8.262;2023-07-13T03:41:36;17.10;58.90
17659;DHT22;8948;51.534;8.262;2023-07-13T03:46:37;17.40;67.90
17659;DHT22;8948;51.534;8.262;2023-07-13T03:51:37;17.80;59.90
17659;DHT22;8948;51.534;8.262;2023-07-13T03:56:38;18.00;63.70
17659;DHT22;8948;51.534;8.262;2023-07-13T04:01:38;18.20;62.00
17659;DHT22;8948;51.534;8.262;2023-07-13T04:06:39;18.30;60.40
17659;DHT22;8948;51.534;8.262;2023-07-13T04:11:40;18.20;60.00
17659;DHT22;8948;51.534;8.262;2023-07-13T04:16:40;18.20;60.50
17659;DHT22;8948;51.534;8.262;2023-07-13T04:21:41;18.30;61.00
17659;DHT22;8948;51.534;8.262;2023-07-13T04:26:41;18.40;60.30
17659;DHT22;8948;51.534;8.262;2023-07-13T04:31:42;18.50;57.30
17659;DHT22;8948;51.534;8.262;2023-07-13T04:36:42;18.20;56.80
17659;DHT22;8948;51.534;8.262;2023-07-13T04:41:43;17.90;57.70
17659;DHT22;8948;51.534;8.262;2023-07-13T04:46:43;17.70;58.20
17659;DHT22;8948;51.534;8.262;2023-07-13T04:51:44;17.60;58.50
17659;DHT22;8948;51.534;8.262;2023-07-13T04:56:45;17.60;57.20
17659;DHT22;8948;51.534;8.262;2023-07-13T05:01:45;17.50;59.30
17659;DHT22;8948;51.534;8.262;2023-07-13T05:06:46;17.40;59.50
17659;DHT22;8948;51.534;8.262;2023-07-13T05:11:47;17.60;59.20
17659;DHT22;8948;51.534;8.262;2023-07-13T05:16:47;17.60;58.90
17659;DHT22;8948;51.534;8.262;2023-07-13T05:21:48;17.70;59.80
17659;DHT22;8948;51.534;8.262;2023-07-13T05:26:48;17.80;58.50
17659;DHT22;8948;51.534;8.262;2023-07-13T05:31:49;17.80;61.20
17659;DHT22;8948;51.534;8.262;2023-07-13T05:36:50;17.90;60.10
17659;DHT22;8948;51.534;8.262;2023-07-13T05:41:51;18.00;58.40
17659;DHT22;8948;51.534;8.262;2023-07-13T05:46:51;18.00;58.50
17659;DHT22;8948;51.534;8.262;2023-07-13T05:51:52;18.00;58.90
17659;DHT22;8948;51.534;8.262;2023-07-13T05:56:53;18.00;58.80
17659;DHT22;8948;51.534;8.262;2023-07-13T06:01:53;18.10;58.60
17659;DHT22;8948;51.534;8.262;2023-07-13T06:06:54;18.10;58.90
17659;DHT22;8948;51.534;8.262;2023-07-13T06:11:55;18.10;59.20
17659;DHT22;8948;51.534;8.262;2023-07-13T06:16:55;18.10;58.90
17659;DHT22;8948;51.534;8.262;2023-07-13T06:21:56;18.10;59.50
17659;DHT22;8948;51.534;8.262;2023-07-13T06:26:58;18.30;58.50
17659;DHT22;8948;51.534;8.262;2023-07-13T06:31:59;18.50;59.00
17659;DHT22;8948;51.534;8.262;2023-07-13T06:37:00;18.60;58.40
17659;DHT22;8948;51.534;8.262;2023-07-13T06:42:00;18.80;58.60
17659;DHT22;8948;51.534;8.262;2023-07-13T06:47:01;18.90;56.90
17659;DHT22;8948;51.534;8.262;2023-07-13T06:52:01;19.10;56.90
17659;DHT22;8948;51.534;8.262;2023-07-13T06:57:02;19.10;56.20
17659;DHT22;8948;51.534;8.262;2023-07-13T07:02:03;19.10;56.10
17659;DHT22;8948;51.534;8.262;2023-07-13T07:07:04;19.10;56.70
17659;DHT22;8948;51.534;8.262;2023-07-13T07:12:04;19.10;57.20
17659;DHT22;8948;51.534;8.262;2023-07-13T07:17:05;19.30;57.20
17659;DHT22;8948;51.534;8.262;2023-07-13T07:22:06;19.50;56.90
17659;DHT22;8948;51.534;8.262;2023-07-13T07:27:06;19.70;56.90
17659;DHT22;8948;51.534;8.262;2023-07-13T07:32:07;19.80;56.10
17659;DHT22;8948;51.534;8.262;2023-07-13T07:37:11;20.00;56.00
17659;DHT22;8948;51.534;8.262;2023-07-13T07:42:12;20.20;55.70
17659;DHT22;8948;51.534;8.262;2023-07-13T07:47:13;20.20;55.50
17659;DHT22;8948;51.534;8.262;2023-07-13T07:52:13;20.30;55.20
17659;DHT22;8948;51.534;8.262;2023-07-13T07:57:14;20.20;55.10
17659;DHT22;8948;51.534;8.262;2023-07-13T08:02:14;20.50;54.90
17659;DHT22;8948;51.534;8.262;2023-07-13T08:07:15;20.60;54.70
17659;DHT22;8948;51.534;8.262;2023-07-13T08:12:15;20.70;54.50
17659;DHT22;8948;51.534;8.262;2023-07-13T08:17:16;21.00;54.30
17659;DHT22;8948;51.534;8.262;2023-07-13T08:22:17;21.40;53.30
17659;DHT22;8948;51.534;8.262;2023-07-13T08:27:17;21.40;53.20
17659;DHT22;8948;51.534;8.262;2023-07-13T08:32:19;21.40;53.50
17659;DHT22;8948;51.534;8.262;2023-07-13T08:37:20;21.60;52.50
17659;DHT22;8948;51.534;8.262;2023-07-13T08:47:28;21.70;52.00
17659;DHT22;8948;51.534;8.262;2023-07-13T08:52:34;21.90;52.70
17659;DHT22;8948;51.534;8.262;2023-07-13T08:57:38;22.20;51.90
17659;DHT22;8948;51.534;8.262;2023-07-13T09:03:01;22.50;51.00
17659;DHT22;8948;51.534;8.262;2023-07-13T09:18:30;22.30;50.50
17659;DHT22;8948;51.534;8.262;2023-07-13T09:23:35;22.10;52.00
17659;DHT22;8948;51.534;8.262;2023-07-13T09:28:42;22.70;50.30
17659;DHT22;8948;51.534;8.262;2023-07-13T09:33:44;22.80;49.90
17659;DHT22;8948;51.534;8.262;2023-07-13T09:38:45;23.10;49.90
17659;DHT22;8948;51.534;8.262;2023-07-13T09:44:07;23.50;49.50
17659;DHT22;8948;51.534;8.262;2023-07-13T09:49:11;23.60;48.70
17659;DHT22;8948;51.534;8.262;2023-07-13T09:54:20;23.30;48.70
17659;DHT22;8948;51.534;8.262;2023-07-13T09:59:22;22.70;49.70
17659;DHT22;8948;51.534;8.262;2023-07-13T10:04:31;22.50;49.50
17659;DHT22;8948;51.534;8.262;2023-07-13T10:09:32;22.60;50.20
17659;DHT22;8948;51.534;8.262;2023-07-13T10:14:32;23.00;48.80
17659;DHT22;8948;51.534;8.262;2023-07-13T10:19:34;22.80;48.70
17659;DHT22;8948;51.534;8.262;2023-07-13T10:24:37;23.30;47.10
17659;DHT22;8948;51.534;8.262;2023-07-13T10:29:46;24.30;45.30
17659;DHT22;8948;51.534;8.262;2023-07-13T10:34:48;24.60;45.20
17659;DHT22;8948;51.534;8.262;2023-07-13T10:39:53;25.00;44.10
17659;DHT22;8948;51.534;8.262;2023-07-13T10:44:54;25.40;43.90
17659;DHT22;8948;51.534;8.262;2023-07-13T10:49:57;25.80;44.90
17659;DHT22;8948;51.534;8.262;2023-07-13T10:54:58;25.30;43.60
17659;DHT22;8948;51.534;8.262;2023-07-13T11:00:17;24.20;45.40
17659;DHT22;8948;51.534;8.262;2023-07-13T11:05:26;23.60;46.00
17659;DHT22;8948;51.534;8.262;2023-07-13T11:11:01;24.00;45.70
17659;DHT22;8948;51.534;8.262;2023-07-13T11:16:12;24.50;44.90
17659;DHT22;8948;51.534;8.262;2023-07-13T11:21:25;24.40;44.60
17659;DHT22;8948;51.534;8.262;2023-07-13T11:31:54;24.00;45.30
17659;DHT22;8948;51.534;8.262;2023-07-13T11:36:56;24.30;46.30
17659;DHT22;8948;51.534;8.262;2023-07-13T11:42:00;24.10;45.10
17659;DHT22;8948;51.534;8.262;2023-07-13T11:47:10;24.30;44.80
17659;DHT22;8948;51.534;8.262;2023-07-13T11:52:14;24.30;45.20
17659;DHT22;8948;51.534;8.262;2023-07-13T11:57:24;24.20;45.80
17659;DHT22;8948;51.534;8.262;2023-07-13T12:02:29;24.10;45.20
17659;DHT22;8948;51.534;8.262;2023-07-13T12:07:33;24.20;45.50
17659;DHT22;8948;51.534;8.262;2023-07-13T12:12:33;24.20;45.20
17659;DHT22;8948;51.534;8.262;2023-07-13T12:17:35;24.00;45.90
17659;DHT22;8948;51.534;8.262;2023-07-13T12:22:35;24.10;46.20
17659;DHT22;8948;51.534;8.262;2023-07-13T12:27:36;24.30;45.90
17659;DHT22;8948;51.534;8.262;2023-07-13T12:32:38;24.60;44.70
17659;DHT22;8948;51.534;8.262;2023-07-13T12:37:45;24.80;44.20
17659;DHT22;8948;51.534;8.262;2023-07-13T12:42:51;24.20;44.80
17659;DHT22;8948;51.534;8.262;2023-07-13T12:47:58;23.90;44.80
17659;DHT22;8948;51.534;8.262;2023-07-13T12:53:03;23.70;45.80
17659;DHT22;8948;51.534;8.262;2023-07-13T12:58:04;23.60;47.50
17659;DHT22;8948;51.534;8.262;2023-07-13T13:03:13;25.00;46.30
17659;DHT22;8948;51.534;8.262;2023-07-13T13:08:18;24.80;44.90
17659;DHT22;8948;51.534;8.262;2023-07-13T13:13:19;24.50;43.30
17659;DHT22;8948;51.534;8.262;2023-07-13T13:18:22;24.80;43.00
17659;DHT22;8948;51.534;8.262;2023-07-13T13:23:23;25.90;42.20
17659;DHT22;8948;51.534;8.262;2023-07-13T13:28:25;26.50;41.00
17659;DHT22;8948;51.534;8.262;2023-07-13T13:33:26;26.10;40.10
17659;DHT22;8948;51.534;8.262;2023-07-13T13:38:28;25.80;40.90
17659;DHT22;8948;51.534;8.262;2023-07-13T13:43:28;26.10;40.90
17659;DHT22;8948;51.534;8.262;2023-07-13T13:48:34;25.40;41.00
17659;DHT22;8948;51.534;8.262;2023-07-13T13:53:35;25.60;41.00
17659;DHT22;8948;51.534;8.262;2023-07-13T13:58:36;26.40;39.10
17659;DHT22;8948;51.534;8.262;2023-07-13T14:03:36;26.60;37.70
17659;DHT22;8948;51.534;8.262;2023-07-13T14:08:37;26.50;37.80
17659;DHT22;8948;51.534;8.262;2023-07-13T14:13:42;26.20;38.60
17659;DHT22;8948;51.534;8.262;2023-07-13T14:18:44;26.00;39.50
17659;DHT22;8948;51.534;8.262;2023-07-13T14:23:46;26.20;39.50
17659;DHT22;8948;51.534;8.262;2023-07-13T14:28:49;27.00;38.60
17659;DHT22;8948;51.534;8.262;2023-07-13T14:33:50;26.90;38.00
17659;DHT22;8948;51.534;8.262;2023-07-13T14:38:51;26.80;38.70
17659;DHT22;8948;51.534;8.262;2023-07-13T14:43:52;25.30;43.00
17659;DHT22;8948;51.534;8.262;2023-07-13T14:48:59;23.50;46.10
17659;DHT22;8948;51.534;8.262;2023-07-13T14:54:04;22.60;48.60
17659;DHT22;8948;51.534;8.262;2023-07-13T14:59:04;22.10;50.90
17659;DHT22;8948;51.534;8.262;2023-07-13T15:04:05;21.70;53.60
17659;DHT22;8948;51.534;8.262;2023-07-13T15:09:11;21.10;58.40
17659;DHT22;8948;51.534;8.262;2023-07-13T15:14:11;20.70;61.10
17659;DHT22;8948;51.534;8.262;2023-07-13T15:19:12;20.60;62.10
17659;DHT22;8948;51.534;8.262;2023-07-13T15:24:13;20.60;62.00
17659;DHT22;8948;51.534;8.262;2023-07-13T15:29:17;21.00;60.20
17659;DHT22;8948;51.534;8.262;2023-07-13T15:34:21;21.40;59.80
17659;DHT22;8948;51.534;8.262;2023-07-13T15:39:24;21.60;59.70
17659;DHT22;8948;51.534;8.262;2023-07-13T15:44:30;22.30;58.90
17659;DHT22;8948;51.534;8.262;2023-07-13T15:49:31;22.40;59.10
17659;DHT22;8948;51.534;8.262;2023-07-13T15:54:31;22.60;58.50
17659;DHT22;8948;51.534;8.262;2023-07-13T15:59:32;22.50;57.20
17659;DHT22;8948;51.534;8.262;2023-07-13T16:04:32;22.20;57.50
17659;DHT22;8948;51.534;8.262;2023-07-13T16:09:33;22.20;58.50
17659;DHT22;8948;51.534;8.262;2023-07-13T16:14:34;22.30;59.60
17659;DHT22;8948;51.534;8.262;2023-07-13T16:19:34;22.30;60.40
17659;DHT22;8948;51.534;8.262;2023-07-13T16:24:35;22.30;59.30
17659;DHT22;8948;51.534;8.262;2023-07-13T16:29:35;22.00;57.80
17659;DHT22;8948;51.534;8.262;2023-07-13T16:34:37;22.20;58.50
17659;DHT22;8948;51.534;8.262;2023-07-13T16:39:41;22.60;57.20
17659;DHT22;8948;51.534;8.262;2023-07-13T16:44:43;23.00;57.30
17659;DHT22;8948;51.534;8.262;2023-07-13T16:49:44;23.10;55.70
17659;DHT22;8948;51.534;8.262;2023-07-13T16:54:46;23.20;55.80
17659;DHT22;8948;51.534;8.262;2023-07-13T16:59:47;23.00;55.80
17659;DHT22;8948;51.534;8.262;2023-07-13T17:04:47;23.00;54.80
17659;DHT22;8948;51.534;8.262;2023-07-13T17:09:48;22.80;57.70
17659;DHT22;8948;51.534;8.262;2023-07-13T17:14:48;22.80;57.70
17659;DHT22;8948;51.534;8.262;2023-07-13T17:19:50;22.60;57.30
17659;DHT22;8948;51.534;8.262;2023-07-13T17:24:52;22.50;57.60
17659;DHT22;8948;51.534;8.262;2023-07-13T17:29:53;22.50;58.30
17659;DHT22;8948;51.534;8.262;2023-07-13T17:34:54;22.40;59.00
17659;DHT22;8948;51.534;8.262;2023-07-13T17:39:55;21.70;59.70
17659;DHT22;8948;51.534;8.262;2023-07-13T17:44:57;20.40;64.00
17659;DHT22;8948;51.534;8.262;2023-07-13T17:49:58;19.90;65.20
17659;DHT22;8948;51.534;8.262;2023-07-13T17:54:59;19.80;65.10
17659;DHT22;8948;51.534;8.262;2023-07-13T18:00:03;20.00;65.20
17659;DHT22;8948;51.534;8.262;2023-07-13T18:05:18;20.30;64.60
17659;DHT22;8948;51.534;8.262;2023-07-13T18:10:20;20.60;63.50
17659;DHT22;8948;51.534;8.262;2023-07-13T18:15:26;20.80;63.20
17659;DHT22;8948;51.534;8.262;2023-07-13T18:20:28;20.80;62.70
17659;DHT22;8948;51.534;8.262;2023-07-13T18:25:29;20.70;63.60
17659;DHT22;8948;51.534;8.262;2023-07-13T18:30:30;20.70;63.50
17659;DHT22;8948;51.534;8.262;2023-07-13T18:35:32;20.60;64.10
17659;DHT22;8948;51.534;8.262;2023-07-13T18:40:33;20.60;62.60
17659;DHT22;8948;51.534;8.262;2023-07-13T18:45:34;20.60;62.50
17659;DHT22;8948;51.534;8.262;2023-07-13T18:50:35;20.50;62.40
17659;DHT22;8948;51.534;8.262;2023-07-13T18:55:43;20.40;62.30
17659;DHT22;8948;51.534;8.262;2023-07-13T19:00:44;20.30;62.50
17659;DHT22;8948;51.534;8.262;2023-07-13T19:05:47;20.30;62.60
17659;DHT22;8948;51.534;8.262;2023-07-13T19:10:50;20.10;63.60
17659;DHT22;8948;51.534;8.262;2023-07-13T19:15:51;20.00;64.80
17659;DHT22;8948;51.534;8.262;2023-07-13T19:20:57;20.10;63.60
17659;DHT22;8948;51.534;8.262;2023-07-13T19:26:04;20.10;63.20
17659;DHT22;8948;51.534;8.262;2023-07-13T19:36:20;20.10;62.90
17659;DHT22;8948;51.534;8.262;2023-07-13T19:41:23;20.00;63.80
17659;DHT22;8948;51.534;8.262;2023-07-13T19:46:32;20.00;64.70
17659;DHT22;8948;51.534;8.262;2023-07-13T19:51:34;20.00;62.60
17659;DHT22;8948;51.534;8.262;2023-07-13T19:56:36;19.80;63.20
17659;DHT22;8948;51.534;8.262;2023-07-13T20:01:36;19.70;65.00
17659;DHT22;8948;51.534;8.262;2023-07-13T20:06:37;19.40;65.10
17659;DHT22;8948;51.534;8.262;2023-07-13T20:11:38;19.20;65.50
17659;DHT22;8948;51.534;8.262;2023-07-13T20:16:39;19.20;65.50
17659;DHT22;8948;51.534;8.262;2023-07-13T20:21:40;19.10;66.10
17659;DHT22;8948;51.534;8.262;2023-07-13T20:26:42;19.00;66.00
17659;DHT22;8948;51.534;8.262;2023-07-13T20:31:44;19.10;64.80
17659;DHT22;8948;51.534;8.262;2023-07-13T20:36:45;18.70;66.30
17659;DHT22;8948;51.534;8.262;2023-07-13T20:41:46;18.60;66.70
17659;DHT22;8948;51.534;8.262;2023-07-13T20:46:47;18.50;66.20
17659;DHT22;8948;51.534;8.262;2023-07-13T20:51:47;18.30;67.00
17659;DHT22;8948;51.534;8.262;2023-07-13T20:56:51;18.30;66.70
17659;DHT22;8948;51.534;8.262;2023-07-13T21:01:51;18.20;66.80
17659;DHT22;8948;51.534;8.262;2023-07-13T21:06:52;18.10;67.10
17659;DHT22;8948;51.534;8.262;2023-07-13T21:11:52;17.90;67.50
17659;DHT22;8948;51.534;8.262;2023-07-13T21:16:53;18.00;67.00
17659;DHT22;8948;51.534;8.262;2023-07-13T21:21:54;18.10;65.80
17659;DHT22;8948;51.534;8.262;2023-07-13T21:26:54;18.00;66.40
17659;DHT22;8948;51.534;8.262;2023-07-13T21:31:57;17.80;66.90
17659;DHT22;8948;51.534;8.262;2023-07-13T21:36:57;17.70;66.80
17659;DHT22;8948;51.534;8.262;2023-07-13T21:41:59;17.80;65.90
17659;DHT22;8948;51.534;8.262;2023-07-13T21:47:01;17.80;65.70
17659;DHT22;8948;51.534;8.262;2023-07-13T21:52:10;17.60;67.00
17659;DHT22;8948;51.534;8.262;2023-07-13T21:57:15;17.50;67.20
17659;DHT22;8948;51.534;8.262;2023-07-13T22:02:16;17.30;67.50
17659;DHT22;8948;51.534;8.262;2023-07-13T22:07:16;17.30;68.10
17659;DHT22;8948;51.534;8.262;2023-07-13T22:12:17;17.30;67.60
17659;DHT22;8948;51.534;8.262;2023-07-13T22:17:17;17.40;67.30
17659;DHT22;8948;51.534;8.262;2023-07-13T22:22:18;17.40;66.90
17659;DHT22;8948;51.534;8.262;2023-07-13T22:27:18;17.40;66.80
17659;DHT22;8948;51.534;8.262;2023-07-13T22:32:19;17.40;66.60
17659;DHT22;8948;51.534;8.262;2023-07-13T22:37:20;17.40;66.90
17659;DHT22;8948;51.534;8.262;2023-07-13T22:42:20;17.40;66.70
17659;DHT22;8948;51.534;8.262;2023-07-13T22:47:21;17.30;67.20
17659;DHT22;8948;51.534;8.262;2023-07-13T22:52:22;17.20;67.60
17659;DHT22;8948;51.534;8.262;2023-07-13T22:57:22;17.20;67.10
17659;DHT22;8948;51.534;8.262;2023-07-13T23:02:24;17.10;67.40
17659;DHT22;8948;51.534;8.262;2023-07-13T23:07:25;17.20;66.80
17659;DHT22;8948;51.534;8.262;2023-07-13T23:12:26;17.10;67.20
17659;DHT22;8948;51.534;8.262;2023-07-13T23:17:30;17.20;66.20
17659;DHT22;8948;51.534;8.262;2023-07-13T23:22:31;17.10;67.20
17659;DHT22;8948;51.534;8.262;2023-07-13T23:27:31;16.90;67.40
17659;DHT22;8948;51.534;8.262;2023-07-13T23:32:32;16.90;68.10
17659;DHT22;8948;51.534;8.262;2023-07-13T23:37:33;16.90;67.70
17659;DHT22;8948;51.534;8.262;2023-07-13T23:42:33;16.90;67.60
17659;DHT22;8948;51.534;8.262;2023-07-13T23:47:34;16.80;67.40
17659;DHT22;8948;51.534;8.262;2023-07-13T23:52:34;16.80;67.40
17659;DHT22;8948;51.534;8.262;2023-07-13T23:57:35;16.70;67.60
